createdAt,value
2018-06-15T00:01:01.972Z,12.30
2018-06-15T00:03:30.383Z,12.30
2018-06-15T00:05:58.873Z,12.30
2018-06-15T00:08:27.312Z,12.30
2018-06-15T00:10:55.792Z,12.30
2018-06-15T00:13:24.565Z,12.30
2018-06-15T00:15:53.196Z,12.30
2018-06-15T00:18:21.621Z,12.30
2018-06-15T00:20:51.104Z,12.20
2018-06-15T00:23:19.484Z,12.20
2018-06-15T00:25:47.960Z,12.20
2018-06-15T00:28:16.488Z,12.10
2018-06-15T00:30:46.049Z,12.10
2018-06-15T00:33:14.503Z,12.10
2018-06-15T00:35:43.039Z,12.00
2018-06-15T00:38:11.515Z,11.90
2018-06-15T00:40:40.976Z,11.90
2018-06-15T00:43:09.446Z,11.80
2018-06-15T00:45:37.988Z,11.80
2018-06-15T00:48:06.452Z,11.70
2018-06-15T00:50:35.035Z,11.70
2018-06-15T00:53:03.464Z,11.80
2018-06-15T00:55:31.976Z,11.90
2018-06-15T00:58:00.498Z,11.90
2018-06-15T01:00:32.134Z,11.90
2018-06-15T01:05:29.838Z,11.90
2018-06-15T01:07:58.383Z,11.70
2018-06-15T01:10:28.661Z,11.80
2018-06-15T01:12:57.356Z,11.70
2018-06-15T01:15:26.136Z,11.80
2018-06-15T01:17:54.662Z,11.80
2018-06-15T01:20:24.223Z,11.60
2018-06-15T01:22:52.647Z,11.30
2018-06-15T01:25:21.209Z,11.30
2018-06-15T01:27:49.680Z,11.50
2018-06-15T01:30:19.203Z,11.60
2018-06-15T01:32:47.667Z,11.70
2018-06-15T01:41:03.183Z,11.60
2018-06-15T01:43:31.583Z,11.50
2018-06-15T01:46:00.162Z,11.40
2018-06-15T01:48:28.752Z,11.50
2018-06-15T01:50:57.377Z,11.60
2018-06-15T01:53:25.822Z,11.60
2018-06-15T01:55:54.481Z,11.60
2018-06-15T01:58:23.272Z,11.60
2018-06-15T02:03:21.009Z,11.60
2018-06-15T02:05:49.721Z,11.60
2018-06-15T02:08:18.236Z,11.70
2018-06-15T02:10:46.744Z,11.70
2018-06-15T02:13:15.123Z,11.70
2018-06-15T02:15:43.658Z,11.70
2018-06-15T02:20:40.720Z,11.70
2018-06-15T02:23:09.767Z,11.60
2018-06-15T02:25:38.644Z,11.60
2018-06-15T02:28:07.032Z,11.60
2018-06-15T02:30:35.598Z,11.60
2018-06-15T02:33:04.142Z,11.60
2018-06-15T02:35:32.677Z,11.50
2018-06-15T02:38:01.144Z,11.50
2018-06-15T02:40:29.725Z,11.50
2018-06-15T02:42:58.197Z,11.60
2018-06-15T02:45:26.774Z,11.60
2018-06-15T02:47:55.484Z,11.60
2018-06-15T02:50:24.024Z,11.40
2018-06-15T02:52:52.544Z,11.40
2018-06-15T02:55:21.088Z,11.40
2018-06-15T02:57:49.531Z,11.50
2018-06-15T03:00:18.036Z,11.30
2018-06-15T03:02:46.548Z,11.10
2018-06-15T03:05:15.137Z,11.10
2018-06-15T03:07:43.568Z,11.10
2018-06-15T03:10:12.022Z,11.30
2018-06-15T03:12:40.581Z,11.40
2018-06-15T03:15:09.150Z,11.40
2018-06-15T03:17:38.362Z,11.50
2018-06-15T03:20:06.907Z,11.40
2018-06-15T04:44:33.431Z,11.50
2018-06-15T04:47:01.873Z,11.60
2018-06-15T04:49:30.354Z,11.70
2018-06-15T04:51:58.848Z,11.70
2018-06-15T04:54:27.378Z,11.70
2018-06-15T04:56:56.033Z,11.80
2018-06-15T04:59:24.600Z,11.80
2018-06-15T05:01:53.101Z,11.80
2018-06-15T05:04:21.686Z,11.80
2018-06-15T05:06:50.337Z,11.90
2018-06-15T05:09:18.865Z,11.90
2018-06-15T05:11:47.430Z,12.00
2018-06-15T05:14:15.944Z,12.00
2018-06-15T05:16:44.405Z,12.00
2018-06-15T05:19:12.958Z,12.10
2018-06-15T05:21:41.472Z,12.10
2018-06-15T05:24:10.608Z,12.10
2018-06-15T05:26:39.992Z,12.20
2018-06-15T05:29:08.479Z,12.30
2018-06-15T05:31:36.889Z,12.30
2018-06-15T05:34:05.440Z,12.30
2018-06-15T05:36:33.920Z,12.30
2018-06-15T05:39:02.418Z,12.30
2018-06-15T05:41:31.708Z,12.30
2018-06-15T05:44:00.480Z,12.30
2018-06-15T05:46:29.876Z,12.30
2018-06-15T05:48:59.022Z,12.40
2018-06-15T05:51:27.589Z,12.40
2018-06-15T05:53:56.122Z,12.40
2018-06-15T05:56:24.575Z,12.40
2018-06-15T05:58:53.146Z,12.40
2018-06-15T06:01:21.650Z,12.50
2018-06-15T06:03:50.227Z,12.50
2018-06-15T06:06:18.995Z,12.50
2018-06-15T06:08:47.518Z,12.60
2018-06-15T06:11:15.944Z,12.60
2018-06-15T06:13:44.444Z,12.60
2018-06-15T06:16:12.924Z,12.60
2018-06-15T06:18:41.516Z,12.70
2018-06-15T06:21:09.994Z,12.70
2018-06-15T06:23:38.570Z,12.70
2018-06-15T06:26:07.093Z,12.80
2018-06-15T06:28:35.540Z,12.80
2018-06-15T06:31:04.058Z,12.90
2018-06-15T06:33:32.612Z,12.90
2018-06-15T06:36:01.694Z,12.80
2018-06-15T06:38:30.552Z,12.80
2018-06-15T06:40:59.897Z,12.90
2018-06-15T06:43:28.349Z,12.90
2018-06-15T06:45:56.876Z,12.90
2018-06-15T06:48:25.368Z,12.90
2018-06-15T06:50:53.919Z,13.00
2018-06-15T06:53:22.700Z,13.10
2018-06-15T06:55:51.151Z,13.10
2018-06-15T06:58:19.690Z,13.20
2018-06-15T07:00:48.144Z,13.10
2018-06-15T07:03:16.644Z,13.10
2018-06-15T07:05:45.025Z,13.20
2018-06-15T07:08:13.504Z,13.20
2018-06-15T07:10:42.004Z,13.30
2018-06-15T07:13:10.454Z,13.40
2018-06-15T07:15:39.093Z,13.60
2018-06-15T07:18:07.655Z,13.70
2018-06-15T07:20:36.177Z,13.70
2018-06-15T07:23:04.744Z,13.70
2018-06-15T07:25:33.217Z,13.90
2018-06-15T07:28:02.431Z,14.00
2018-06-15T07:30:30.951Z,14.00
2018-06-15T07:32:59.523Z,14.00
2018-06-15T07:35:28.038Z,14.00
2018-06-15T07:37:56.489Z,14.10
2018-06-15T07:40:24.872Z,14.20
2018-06-15T07:42:53.383Z,14.20
2018-06-15T07:45:21.998Z,14.20
2018-06-15T07:47:50.631Z,14.20
2018-06-15T07:50:19.069Z,14.30
2018-06-15T07:52:47.627Z,14.30
2018-06-15T07:55:16.091Z,14.30
2018-06-15T07:57:44.672Z,14.30
2018-06-15T08:00:13.165Z,14.30
2018-06-15T08:02:42.408Z,14.30
2018-06-15T08:05:11.279Z,14.30
2018-06-15T08:07:40.187Z,14.30
2018-06-15T08:10:08.641Z,14.50
2018-06-15T08:12:37.313Z,14.60
2018-06-15T08:15:05.964Z,14.40
2018-06-15T08:17:34.539Z,14.40
2018-06-15T08:20:03.062Z,14.60
2018-06-15T08:22:31.768Z,14.70
2018-06-15T08:25:00.290Z,14.90
2018-06-15T08:27:28.723Z,14.90
2018-06-15T08:29:57.258Z,14.90
2018-06-15T08:32:25.717Z,15.00
2018-06-15T08:34:54.184Z,15.00
2018-06-15T08:37:22.683Z,15.00
2018-06-15T08:39:51.157Z,15.00
2018-06-15T08:42:19.816Z,15.10
2018-06-15T08:44:48.452Z,15.00
2018-06-15T10:12:15.118Z,15.00
2018-06-15T10:14:43.588Z,16.00
2018-06-15T10:17:12.896Z,16.00
2018-06-15T10:19:42.390Z,16.10
2018-06-15T10:22:11.497Z,16.30
2018-06-15T10:24:40.315Z,16.20
2018-06-15T10:27:08.824Z,16.20
2018-06-15T10:29:37.221Z,16.40
2018-06-15T10:32:05.974Z,16.50
2018-06-15T10:34:34.435Z,16.50
2018-06-15T10:37:03.026Z,16.50
2018-06-15T10:39:31.544Z,16.60
2018-06-15T10:42:00.187Z,16.70
2018-06-15T10:44:28.668Z,16.60
2018-06-15T10:46:57.304Z,16.60
2018-06-15T10:49:25.727Z,16.60
2018-06-15T10:51:54.264Z,16.70
2018-06-15T10:54:22.759Z,16.80
2018-06-15T10:56:51.271Z,16.80
2018-06-15T10:59:19.765Z,17.20
2018-06-15T11:01:48.209Z,17.40
2018-06-15T11:04:16.685Z,17.40
2018-06-15T11:06:45.279Z,17.30
2018-06-15T11:09:13.756Z,17.20
2018-06-15T11:11:43.058Z,17.10
2018-06-15T11:14:12.249Z,17.00
2018-06-15T11:16:41.243Z,17.00
2018-06-15T11:19:10.521Z,17.00
2018-06-15T11:21:39.049Z,17.20
2018-06-15T11:24:08.027Z,17.30
2018-06-15T11:26:36.483Z,17.30
2018-06-15T11:29:04.991Z,17.30
2018-06-15T11:31:33.437Z,17.30
2018-06-15T11:34:01.982Z,17.30
2018-06-15T11:36:30.495Z,17.40
2018-06-15T11:38:58.935Z,17.50
2018-06-15T11:41:27.417Z,17.50
2018-06-15T11:43:55.897Z,17.40
2018-06-15T11:46:24.462Z,17.40
2018-06-15T11:48:52.958Z,17.30
2018-06-15T11:51:21.474Z,17.30
2018-06-15T11:53:49.937Z,17.40
2018-06-15T11:58:46.528Z,17.30
2018-06-15T12:01:15.099Z,17.50
2018-06-15T12:03:43.590Z,17.60
2018-06-15T12:06:13.099Z,17.60
2018-06-15T12:08:42.275Z,17.70
2018-06-15T12:11:11.929Z,17.50
2018-06-15T12:13:40.835Z,17.40
2018-06-15T12:18:37.488Z,17.40
2018-06-15T12:23:34.211Z,17.40
2018-06-15T12:26:02.736Z,17.40
2018-06-15T12:28:31.213Z,17.40
2018-06-15T12:30:59.825Z,17.50
2018-06-15T12:33:28.285Z,17.40
2018-06-15T12:35:56.792Z,17.40
2018-06-15T12:38:25.279Z,17.50
2018-06-15T12:40:53.796Z,17.50
2018-06-15T12:43:22.395Z,17.50
2018-06-15T12:45:50.938Z,17.70
2018-06-15T12:48:19.477Z,17.80
2018-06-15T12:50:48.045Z,18.00
2018-06-15T12:53:16.457Z,17.90
2018-06-15T12:55:44.927Z,17.90
2018-06-15T12:58:13.429Z,17.80
2018-06-15T13:00:42.922Z,18.00
2018-06-15T13:03:11.440Z,18.00
2018-06-15T13:05:40.476Z,18.00
2018-06-15T13:08:09.009Z,17.90
2018-06-15T13:10:37.613Z,17.80
2018-06-15T13:13:06.074Z,17.80
2018-06-15T13:15:34.651Z,17.90
2018-06-15T13:18:04.785Z,18.30
2018-06-15T13:20:33.327Z,18.20
2018-06-15T13:23:01.804Z,18.20
2018-06-15T13:25:30.323Z,18.30
2018-06-15T13:27:58.742Z,18.20
2018-06-15T13:30:27.290Z,18.10
2018-06-15T13:32:55.735Z,18.10
2018-06-15T13:35:24.437Z,18.20
2018-06-15T13:37:52.962Z,18.20
2018-06-15T13:40:21.427Z,18.30
2018-06-15T13:42:49.869Z,18.40
2018-06-15T13:45:18.257Z,18.60
2018-06-15T13:47:46.852Z,18.80
2018-06-15T13:50:15.725Z,18.70
2018-06-15T13:52:44.156Z,18.70
2018-06-15T13:55:12.612Z,18.70
2018-06-15T13:57:42.035Z,18.50
2018-06-15T14:00:12.082Z,18.40
2018-06-15T14:02:41.354Z,18.40
2018-06-15T14:05:10.421Z,18.50
2018-06-15T14:07:38.832Z,18.70
2018-06-15T14:10:08.356Z,18.80
2018-06-15T14:12:36.720Z,19.10
2018-06-15T14:15:05.276Z,19.20
2018-06-15T14:17:33.753Z,19.10
2018-06-15T14:20:02.312Z,18.90
2018-06-15T14:22:30.767Z,18.80
2018-06-15T14:24:59.212Z,18.80
2018-06-15T14:27:27.673Z,18.70
2018-06-15T14:29:56.204Z,18.60
2018-06-15T14:32:24.631Z,18.60
2018-06-15T14:34:53.142Z,18.50
2018-06-15T14:37:21.660Z,18.40
2018-06-15T14:39:50.203Z,18.40
2018-06-15T14:42:18.678Z,18.30
2018-06-15T14:44:47.127Z,18.50
2018-06-15T14:47:15.509Z,18.60
2018-06-15T14:49:44.014Z,18.50
2018-06-15T14:52:12.506Z,18.50
2018-06-15T14:54:42.173Z,18.60
2018-06-15T14:57:11.328Z,18.70
2018-06-15T14:59:40.507Z,18.60
2018-06-15T15:02:09.086Z,18.90
2018-06-15T15:04:37.582Z,18.90
2018-06-15T15:07:06.016Z,19.10
2018-06-15T15:09:34.467Z,19.20
2018-06-15T15:12:02.874Z,19.30
2018-06-15T15:14:31.478Z,19.30
2018-06-15T15:16:59.926Z,19.30
2018-06-15T15:19:28.455Z,19.20
2018-06-15T15:21:56.930Z,19.20
2018-06-15T15:24:25.468Z,19.20
2018-06-15T15:26:53.912Z,19.00
2018-06-15T15:29:22.466Z,18.80
2018-06-15T15:31:50.936Z,18.70
2018-06-15T15:34:19.760Z,18.60
2018-06-15T15:36:48.195Z,18.50
2018-06-15T15:39:16.963Z,18.50
2018-06-15T15:41:45.398Z,18.70
2018-06-15T15:44:13.932Z,18.90
2018-06-15T15:46:42.980Z,19.10
2018-06-15T15:49:11.532Z,19.00
2018-06-15T15:51:40.006Z,19.00
2018-06-15T15:54:08.470Z,19.00
2018-06-15T15:56:36.890Z,19.00
2018-06-15T15:59:05.405Z,19.00
2018-06-15T16:01:33.940Z,19.00
2018-06-15T16:04:02.389Z,19.10
2018-06-15T16:06:30.817Z,19.00
2018-06-15T16:08:59.352Z,18.80
2018-06-15T16:11:27.867Z,18.70
2018-06-15T16:13:56.402Z,18.60
2018-06-15T16:16:24.875Z,18.40
2018-06-15T16:18:53.417Z,18.30
2018-06-15T16:21:21.900Z,18.20
2018-06-15T16:23:50.431Z,18.20
2018-06-15T16:26:18.877Z,18.10
2018-06-15T16:28:47.394Z,18.20
2018-06-15T16:31:15.835Z,18.10
2018-06-15T16:33:44.323Z,18.20
2018-06-15T16:36:12.790Z,18.20
2018-06-15T16:38:41.824Z,18.30
2018-06-15T16:41:13.206Z,18.20
2018-06-15T16:43:44.093Z,18.40
2018-06-15T16:46:12.594Z,18.30
2018-06-15T16:48:42.544Z,18.20
2018-06-15T16:51:12.275Z,18.20
2018-06-15T16:53:42.607Z,18.00
2018-06-15T16:56:15.467Z,18.00
2018-06-15T17:01:40.920Z,17.80
2018-06-15T17:07:28.700Z,17.80
2018-06-15T17:10:12.174Z,17.80
2018-06-15T17:12:42.543Z,17.70
2018-06-15T17:15:12.668Z,17.70
2018-06-15T17:17:42.992Z,17.70
2018-06-15T17:20:13.364Z,17.60
2018-06-15T17:22:42.950Z,17.60
2018-06-15T17:25:12.474Z,17.60
2018-06-15T17:27:42.658Z,17.60
2018-06-15T17:30:13.331Z,17.60
2018-06-15T17:32:43.030Z,17.60
2018-06-15T17:35:12.592Z,17.60
2018-06-15T17:37:42.148Z,17.60
2018-06-15T17:40:11.308Z,17.60
2018-06-15T17:42:39.799Z,17.60
2018-06-15T17:45:12.095Z,17.60
2018-06-15T17:47:40.758Z,17.60
2018-06-15T17:50:09.745Z,17.60
2018-06-15T17:52:38.148Z,17.50
2018-06-15T17:55:07.022Z,17.50
2018-06-15T17:57:35.632Z,17.60
2018-06-15T18:00:04.908Z,17.50
2018-06-15T18:02:33.432Z,17.50
2018-06-15T18:05:02.172Z,17.40
2018-06-15T18:07:30.832Z,17.30
2018-06-15T18:09:59.273Z,17.30
2018-06-15T18:12:27.708Z,17.30
2018-06-15T18:14:56.494Z,17.20
2018-06-15T18:17:24.935Z,17.20
2018-06-15T18:19:53.397Z,17.20
2018-06-15T18:22:21.844Z,17.10
2018-06-15T18:24:50.363Z,17.20
2018-06-15T18:27:18.768Z,17.10
2018-06-15T18:29:47.227Z,17.10
2018-06-15T18:32:15.578Z,17.00
2018-06-15T18:34:44.242Z,17.10
2018-06-15T18:37:12.711Z,16.90
2018-06-15T18:39:41.821Z,16.90
2018-06-15T18:42:10.663Z,16.90
2018-06-15T18:44:39.227Z,16.80
2018-06-15T18:47:07.644Z,16.80
2018-06-15T18:52:04.228Z,16.60
2018-06-15T18:54:32.789Z,16.60
2018-06-15T18:57:01.452Z,16.50
2018-06-15T18:59:29.950Z,16.50
2018-06-15T19:01:58.365Z,16.40
2018-06-15T19:04:26.828Z,16.40
2018-06-15T19:06:55.248Z,16.30
2018-06-15T19:09:23.733Z,16.20
2018-06-15T19:11:52.447Z,16.20
2018-06-15T19:16:49.179Z,16.10
2018-06-15T19:19:17.780Z,16.10
2018-06-15T19:24:14.444Z,16.10
2018-06-15T19:26:42.970Z,16.10
2018-06-15T19:29:11.696Z,16.10
2018-06-15T19:31:40.714Z,16.00
2018-06-15T19:34:09.193Z,16.00
2018-06-15T19:36:37.625Z,16.00
2018-06-15T19:39:06.955Z,16.00
2018-06-15T19:41:35.420Z,13.50
2018-06-15T19:44:04.603Z,15.90
2018-06-15T19:46:33.738Z,15.90
2018-06-15T19:49:02.284Z,15.90
2018-06-15T19:51:30.877Z,15.80
2018-06-15T19:53:59.671Z,15.80
2018-06-15T19:56:28.150Z,15.70
2018-06-15T19:58:56.755Z,15.70
2018-06-15T20:01:25.237Z,15.70
2018-06-15T20:03:54.311Z,15.70
2018-06-15T20:06:22.714Z,15.70
2018-06-15T20:08:51.299Z,15.70
2018-06-15T20:11:19.783Z,15.60
2018-06-15T20:13:48.265Z,15.60
2018-06-15T20:16:16.688Z,15.70
2018-06-15T20:18:45.240Z,15.60
2018-06-15T20:21:13.634Z,15.50
2018-06-15T20:23:43.202Z,15.50
2018-06-15T20:26:12.398Z,15.50
2018-06-15T20:28:41.688Z,15.40
2018-06-15T20:31:10.233Z,15.40
2018-06-15T20:33:38.866Z,15.40
2018-06-15T20:36:07.389Z,15.40
2018-06-15T20:38:35.949Z,15.40
2018-06-15T20:41:04.373Z,15.50
2018-06-15T20:43:32.847Z,15.40
2018-06-15T20:46:01.325Z,15.30
2018-06-15T20:48:29.840Z,15.30
2018-06-15T20:50:58.344Z,15.20
2018-06-15T20:53:26.757Z,15.20
2018-06-15T20:55:55.224Z,15.20
2018-06-15T20:58:23.698Z,15.10
2018-06-15T21:00:52.188Z,15.10
2018-06-15T21:03:20.734Z,15.10
2018-06-15T21:05:49.486Z,15.10
2018-06-15T21:08:17.987Z,15.00
2018-06-15T21:10:46.520Z,15.00
2018-06-15T21:15:43.179Z,14.90
2018-06-15T21:18:11.955Z,14.90
2018-06-15T21:20:41.141Z,14.90
2018-06-15T21:23:10.261Z,14.90
2018-06-15T21:25:38.692Z,14.80
2018-06-15T21:28:07.220Z,14.80
2018-06-15T21:30:35.653Z,14.70
2018-06-15T21:33:04.596Z,14.70
2018-06-15T21:35:33.172Z,14.70
2018-06-15T21:38:01.726Z,14.70
2018-06-15T21:40:30.160Z,14.60
2018-06-15T21:42:58.640Z,14.60
2018-06-15T21:45:27.098Z,14.60
2018-06-15T21:47:55.679Z,14.60
2018-06-15T21:50:24.092Z,14.50
2018-06-15T21:52:52.867Z,14.50
2018-06-15T21:55:21.364Z,14.50
2018-06-15T21:57:49.808Z,14.50
2018-06-15T22:00:18.394Z,14.40
2018-06-15T22:02:46.903Z,14.40
2018-06-15T22:05:15.354Z,14.40
2018-06-15T22:07:43.836Z,14.40
2018-06-15T22:10:12.969Z,14.30
2018-06-15T22:12:42.456Z,14.30
2018-06-15T22:15:10.836Z,14.30
2018-06-15T22:17:40.013Z,14.30
2018-06-15T22:20:08.604Z,14.20
2018-06-15T22:22:37.164Z,14.10
2018-06-15T22:25:05.593Z,14.00
2018-06-15T22:27:34.051Z,14.00
2018-06-15T22:30:02.546Z,13.90
2018-06-15T22:32:30.939Z,13.90
2018-06-15T22:34:59.395Z,13.90
2018-06-15T22:37:27.802Z,13.90
2018-06-15T22:39:56.300Z,14.10
2018-06-15T22:42:24.791Z,14.10
2018-06-15T22:44:53.378Z,14.10
2018-06-15T22:47:21.791Z,14.00
2018-06-15T22:49:50.293Z,14.10
2018-06-15T22:52:18.723Z,14.10
2018-06-15T22:54:47.292Z,14.10
2018-06-15T22:57:16.079Z,14.20
2018-06-15T22:59:44.673Z,14.30
2018-06-15T23:02:13.059Z,14.30
2018-06-15T23:04:41.904Z,14.30
2018-06-15T23:07:11.562Z,14.40
2018-06-15T23:09:40.819Z,14.50
2018-06-15T23:12:09.217Z,14.60
2018-06-15T23:14:37.826Z,14.60
2018-06-15T23:17:07.004Z,14.60
2018-06-15T23:19:35.529Z,14.60
2018-06-15T23:22:04.615Z,14.60
2018-06-15T23:24:33.063Z,14.70
2018-06-15T23:27:01.519Z,14.60
2018-06-15T23:29:30.109Z,14.70
2018-06-15T23:31:58.520Z,14.70
2018-06-15T23:34:27.055Z,14.70
2018-06-15T23:36:55.503Z,14.70
2018-06-15T23:39:23.977Z,14.70
2018-06-15T23:41:52.493Z,14.70
2018-06-15T23:44:20.982Z,14.70
2018-06-15T23:46:49.451Z,14.70
2018-06-15T23:49:17.977Z,14.80
2018-06-15T23:51:46.426Z,14.80
2018-06-15T23:54:14.991Z,14.80
2018-06-15T23:56:43.448Z,14.90
2018-06-15T23:59:12.079Z,14.80
